Time;durP1;ratioP1;P1;durP2;ratioP2;P2;SDS_P1;SDS_P2;PMS_P1;PMS_P2;Temp;Humidity;BMP_temperature;BMP_pressure;BME280_temperature;BME280_humidity;BME280_pressure;Samples;Min_cycle;Max_cycle;Signal;HPM_P1;HPM_P2
2022/05/03 00:01:10;;;;;;;15.87;13.77;;;;;;;11.96;100.00;97948.63;5073178;28;20604;-66
2022/05/03 00:03:42;;;;;;;14.00;12.60;;;;;;;11.93;100.00;97954.19;5072696;28;20677;-68
2022/05/03 00:06:19;;;;;;;13.77;12.37;;;;;;;11.93;100.00;97960.31;5073018;28;20694;-67
2022/05/03 00:08:53;;;;;;;14.10;12.70;;;;;;;11.92;100.00;97955.16;5073052;28;20218;-68
2022/05/03 00:11:28;;;;;;;14.03;12.20;;;;;;;11.91;100.00;97950.78;5071326;28;20211;-66
2022/05/03 00:14:02;;;;;;;13.90;12.50;;;;;;;11.93;100.00;97954.19;5062429;28;20625;-66
2022/05/03 00:16:30;;;;;;;14.17;12.77;;;;;;;11.96;100.00;97946.00;5073107;28;20252;-67
2022/05/03 00:18:57;;;;;;;14.73;13.23;;;;;;;11.94;100.00;97956.72;5072656;28;20697;-67
2022/05/03 00:21:25;;;;;;;15.47;13.87;;;;;;;11.90;100.00;97944.66;5070300;28;20207;-66
2022/05/03 00:23:52;;;;;;;14.53;13.13;;;;;;;11.84;100.00;97949.59;5071347;28;20222;-67
2022/05/03 00:26:19;;;;;;;14.47;13.03;;;;;;;11.73;100.00;97944.28;5072934;28;20215;-66
2022/05/03 00:28:46;;;;;;;14.07;12.67;;;;;;;11.64;100.00;97948.47;5072866;28;20207;-66
2022/05/03 00:31:15;;;;;;;14.80;13.30;;;;;;;11.56;100.00;97950.00;5070188;28;20219;-66
2022/05/03 00:33:42;;;;;;;15.37;13.27;;;;;;;11.52;100.00;97945.88;5072949;28;20235;-66
2022/05/03 00:36:08;;;;;;;15.83;13.70;;;;;;;11.44;100.00;97950.91;5072877;28;20231;-66
2022/05/03 00:38:37;;;;;;;15.27;13.67;;;;;;;11.38;100.00;97941.63;5072618;28;20208;-66
2022/05/03 00:41:06;;;;;;;15.67;13.97;;;;;;;11.29;100.00;97946.75;5070205;28;20215;-67
2022/05/03 00:43:40;;;;;;;15.40;13.80;;;;;;;11.23;100.00;97947.22;5072687;28;20252;-66
2022/05/03 00:46:11;;;;;;;15.43;13.93;;;;;;;11.18;100.00;97941.44;5072880;28;20217;-66
2022/05/03 00:48:51;;;;;;;14.87;13.47;;;;;;;11.11;100.00;97941.06;5071078;28;20211;-68
2022/05/03 00:51:22;;;;;;;15.33;13.73;;;;;;;11.08;100.00;97943.09;5061979;28;20796;-66
2022/05/03 00:54:05;;;;;;;14.30;12.80;;;;;;;11.03;100.00;97939.94;5072552;28;20211;-67
2022/05/03 00:56:44;;;;;;;13.57;12.17;;;;;;;10.99;100.00;97941.09;5070665;28;20239;-66
2022/05/03 00:59:22;;;;;;;13.03;11.70;;;;;;;10.93;100.00;97946.84;5061154;28;20223;-66
2022/05/03 01:01:56;;;;;;;13.23;11.90;;;;;;;10.85;100.00;97941.28;5072298;28;20230;-67
2022/05/03 01:04:30;;;;;;;13.73;12.43;;;;;;;10.77;100.00;97943.66;5072540;28;20216;-66
2022/05/03 01:07:13;;;;;;;13.50;12.00;;;;;;;10.71;100.00;97944.09;5061421;28;20286;-66
2022/05/03 01:09:42;;;;;;;13.57;12.17;;;;;;;10.66;100.00;97938.28;5072416;28;20302;-66
2022/05/03 01:12:23;;;;;;;12.63;11.30;;;;;;;10.63;100.00;97947.28;5072607;28;20218;-66
2022/05/03 01:15:09;;;;;;;13.80;12.40;;;;;;;10.57;100.00;97941.59;5059912;28;20552;-66
2022/05/03 01:17:43;;;;;;;13.00;11.67;;;;;;;10.53;100.00;97940.13;5076344;28;20258;-66
2022/05/03 01:20:11;;;;;;;13.33;11.93;;;;;;;10.50;100.00;97935.06;5074490;28;20235;-65
2022/05/03 01:23:31;;;;;;;14.20;12.80;;;;;;;10.42;100.00;97942.69;5076305;28;20215;-67
2022/05/03 01:26:27;;;;;;;13.17;11.87;;;;;;;10.37;100.00;97934.25;5075956;28;20215;-66
2022/05/03 01:29:14;;;;;;;14.47;12.97;;;;;;;10.41;100.00;97941.03;5067233;28;20212;-66
2022/05/03 01:31:41;;;;;;;14.93;13.40;;;;;;;10.45;100.00;97931.94;5076095;28;20219;-66
2022/05/03 01:34:12;;;;;;;14.23;12.73;;;;;;;10.48;100.00;97934.34;5075979;28;20223;-66
2022/05/03 01:36:47;;;;;;;14.17;12.77;;;;;;;10.46;100.00;97936.25;5076002;28;20271;-66
2022/05/03 01:39:22;;;;;;;15.03;13.43;;;;;;;10.36;100.00;97932.56;5076019;28;20223;-66
2022/05/03 01:41:52;;;;;;;15.73;14.23;;;;;;;10.27;100.00;97933.25;5072369;28;20223;-66
2022/05/03 01:44:32;;;;;;;15.10;13.37;;;;;;;10.22;100.00;97935.34;5075493;28;20223;-65
2022/05/03 01:47:08;;;;;;;15.10;13.57;;;;;;;10.16;100.00;97941.91;5075809;28;20222;-66
2022/05/03 01:52:50;;;;;;;15.00;13.40;;;;;;;10.12;100.00;97936.94;5067189;28;20234;-66
2022/05/03 01:55:46;;;;;;;16.23;13.47;;;;;;;10.12;100.00;97940.44;5075394;28;20665;-66
2022/05/03 01:58:21;;;;;;;14.90;13.50;;;;;;;10.08;100.00;97932.81;5065338;28;20250;-68
2022/05/03 02:01:04;;;;;;;15.83;14.13;;;;;;;10.03;100.00;97940.22;5075621;28;20585;-65
2022/05/03 02:03:42;;;;;;;16.80;14.50;;;;;;;9.96;100.00;97933.66;5074467;28;20221;-66
2022/05/03 02:06:10;;;;;;;15.17;13.67;;;;;;;9.94;100.00;97936.41;5075418;28;20227;-67
2022/05/03 02:08:51;;;;;;;16.67;13.80;;;;;;;9.90;100.00;97934.09;5074179;28;20212;-66
2022/05/03 02:11:43;;;;;;;15.73;14.03;;;;;;;9.86;100.00;97929.97;5073355;28;20712;-66
2022/05/03 02:17:06;;;;;;;16.00;13.90;;;;;;;9.74;100.00;97936.94;5074884;28;20858;-67
2022/05/03 02:19:48;;;;;;;16.63;14.60;;;;;;;9.74;100.00;97934.28;5073787;28;20211;-66
2022/05/03 02:22:48;;;;;;;17.13;15.20;;;;;;;9.66;100.00;97946.34;5075087;28;20224;-66
2022/05/03 02:25:26;;;;;;;16.57;14.87;;;;;;;9.60;100.00;97944.13;5074479;28;20246;-66
2022/05/03 02:28:00;;;;;;;15.40;13.57;;;;;;;9.50;100.00;97937.78;5075141;28;20211;-66
2022/05/03 02:30:27;;;;;;;14.90;13.33;;;;;;;9.50;100.00;97935.16;5075020;28;20241;-66
2022/05/03 02:33:02;;;;;;;16.90;15.10;;;;;;;9.43;100.00;97929.44;5071291;28;20214;-66
2022/05/03 02:35:33;;;;;;;15.33;13.73;;;;;;;9.42;100.00;97930.38;5063998;28;20335;-66
2022/05/03 02:38:05;;;;;;;14.80;13.33;;;;;;;9.46;100.00;97928.38;5074485;28;20712;-66
2022/05/03 02:40:32;;;;;;;15.83;14.13;;;;;;;9.43;100.00;97923.31;5074740;28;20210;-66
2022/05/03 02:42:59;;;;;;;16.67;14.03;;;;;;;9.44;100.00;97925.00;5074622;28;20257;-67
2022/05/03 02:45:26;;;;;;;16.13;14.43;;;;;;;9.45;100.00;97924.06;5074548;28;20335;-66
2022/05/03 02:48:07;;;;;;;17.53;15.10;;;;;;;9.46;100.00;97923.09;5074283;28;20214;-66
2022/05/03 02:50:43;;;;;;;16.87;15.13;;;;;;;9.46;100.00;97918.69;5074299;28;20215;-66
2022/05/03 02:53:15;;;;;;;16.80;15.10;;;;;;;9.42;100.00;97924.28;5063330;28;20593;-66
2022/05/03 02:55:50;;;;;;;16.30;14.50;;;;;;;9.38;100.00;97920.16;5074593;28;20552;-66
2022/05/03 02:58:31;;;;;;;16.50;14.43;;;;;;;9.32;100.00;97928.47;5073760;28;20603;-66
2022/05/03 03:04:02;;;;;;;17.50;14.70;;;;;;;9.08;100.00;97916.94;5074142;28;20350;-66
2022/05/03 03:06:32;;;;;;;16.10;14.40;;;;;;;8.94;100.00;97925.75;5073302;28;20218;-68
2022/05/03 03:09:00;;;;;;;16.33;14.63;;;;;;;8.83;100.00;97923.00;5074251;28;20215;-68
2022/05/03 03:11:36;;;;;;;15.67;13.97;;;;;;;8.71;100.00;97928.19;5074258;28;20212;-66
2022/05/03 03:14:08;;;;;;;16.23;13.97;;;;;;;8.60;100.00;97946.47;5074167;28;20218;-67
2022/05/03 03:16:39;;;;;;;16.60;14.83;;;;;;;8.47;100.00;97935.91;5074022;28;20215;-66
2022/05/03 03:19:24;;;;;;;16.27;14.67;;;;;;;8.32;100.00;97936.03;5074043;28;20222;-66
2022/05/03 03:21:55;;;;;;;17.07;14.93;;;;;;;8.29;100.00;97936.22;5073719;28;20215;-66
2022/05/03 03:24:23;;;;;;;16.00;14.40;;;;;;;8.19;100.00;97941.22;5070701;28;20210;-65
2022/05/03 03:26:52;;;;;;;16.13;13.97;;;;;;;8.11;100.00;97939.97;5073510;28;20225;-66
2022/05/03 03:29:20;;;;;;;14.83;13.27;;;;;;;8.06;100.00;97945.53;5073933;28;20210;-66
2022/05/03 03:31:47;;;;;;;16.37;13.97;;;;;;;8.05;100.00;97940.34;5073775;28;20707;-66
2022/05/03 03:34:16;;;;;;;15.73;13.83;;;;;;;8.04;100.00;97936.03;5073865;28;20215;-66
2022/05/03 03:36:45;;;;;;;16.23;14.50;;;;;;;8.08;100.00;97937.53;5073638;28;20238;-66
2022/05/03 03:39:12;;;;;;;15.43;13.80;;;;;;;8.12;100.00;97941.66;5073217;28;20218;-66
2022/05/03 03:41:38;;;;;;;19.07;15.57;;;;;;;8.11;100.00;97937.31;5073131;28;20699;-66
2022/05/03 03:44:05;;;;;;;19.03;15.20;;;;;;;8.11;100.00;97932.06;5073615;28;20224;-66
2022/05/03 03:46:33;;;;;;;16.77;14.23;;;;;;;8.18;100.00;97938.63;5073635;28;20222;-66
2022/05/03 03:48:59;;;;;;;18.33;14.87;;;;;;;8.21;100.00;97933.22;5073185;28;20217;-67
2022/05/03 03:51:27;;;;;;;15.70;14.07;;;;;;;8.31;100.00;97929.06;5071792;28;20245;-66
2022/05/03 03:53:54;;;;;;;16.80;14.50;;;;;;;8.40;100.00;97933.75;5073402;28;20500;-66
2022/05/03 03:56:21;;;;;;;15.27;13.67;;;;;;;8.42;100.00;97932.72;5073491;28;20218;-66
2022/05/03 03:58:48;;;;;;;16.70;15.00;;;;;;;8.38;100.00;97930.38;5073352;28;20273;-66
2022/05/03 04:01:15;;;;;;;15.50;13.80;;;;;;;8.41;100.00;97923.13;5073389;28;20212;-66
2022/05/03 04:03:42;;;;;;;17.47;14.93;;;;;;;8.40;100.00;97923.22;5073346;28;20212;-67
2022/05/03 04:06:09;;;;;;;16.33;14.20;;;;;;;8.45;100.00;97915.88;5073363;28;20216;-68
2022/05/03 04:08:37;;;;;;;15.70;14.00;;;;;;;8.49;100.00;97927.88;5073430;28;20214;-66
2022/05/03 04:11:14;;;;;;;15.90;13.40;;;;;;;8.50;100.00;97924.34;5073235;28;20221;-66
2022/05/03 04:13:40;;;;;;;15.20;13.70;;;;;;;8.51;100.00;97921.56;5072503;28;20287;-66
2022/05/03 04:16:09;;;;;;;15.90;13.63;;;;;;;8.53;100.00;97922.34;5072958;28;20211;-67
2022/05/03 04:18:45;;;;;;;15.37;13.77;;;;;;;8.52;100.00;97925.88;5071236;28;20242;-66
2022/05/03 04:21:13;;;;;;;15.17;13.60;;;;;;;8.55;100.00;97933.63;5072071;28;20268;-66
2022/05/03 04:23:41;;;;;;;14.80;13.07;;;;;;;8.58;100.00;97927.31;5062116;28;20275;-66
2022/05/03 04:26:09;;;;;;;15.37;13.77;;;;;;;8.60;100.00;97933.31;5072916;28;20208;-66
2022/05/03 04:28:35;;;;;;;16.40;14.27;;;;;;;8.68;100.00;97933.66;5072815;28;20332;-66
2022/05/03 04:31:02;;;;;;;15.73;13.83;;;;;;;8.66;100.00;97931.13;5073012;28;20229;-66
2022/05/03 04:33:28;;;;;;;18.40;14.47;;;;;;;8.57;100.00;97931.72;5073133;28;20216;-65
2022/05/03 04:35:55;;;;;;;15.87;14.17;;;;;;;8.56;100.00;97937.94;5073135;28;20214;-66
2022/05/03 04:38:21;;;;;;;15.93;14.23;;;;;;;8.57;100.00;97934.34;5072929;28;20239;-66
2022/05/03 04:40:50;;;;;;;17.20;15.33;;;;;;;8.65;100.00;97939.13;5072734;28;20688;-66
2022/05/03 04:43:17;;;;;;;18.37;14.83;;;;;;;8.68;100.00;97933.66;5071371;28;20235;-66
2022/05/03 04:45:43;;;;;;;16.97;14.20;;;;;;;8.81;100.00;97942.47;5072683;28;20234;-67
2022/05/03 04:48:10;;;;;;;16.07;14.30;;;;;;;8.88;100.00;97949.03;5072853;28;20240;-67
2022/05/03 04:50:36;;;;;;;16.13;14.47;;;;;;;9.01;100.00;97960.47;5074057;28;20263;-66
2022/05/03 04:53:03;;;;;;;17.30;15.37;;;;;;;9.13;100.00;97957.03;5076656;28;20562;-67
2022/05/03 04:55:29;;;;;;;16.90;14.73;;;;;;;9.20;100.00;97959.16;5076830;28;20208;-66
2022/05/03 04:57:57;;;;;;;16.37;14.67;;;;;;;9.29;100.00;97961.16;5076740;28;20242;-67
2022/05/03 05:00:23;;;;;;;16.17;14.47;;;;;;;9.39;100.00;97967.53;5074433;28;20224;-66
2022/05/03 05:02:50;;;;;;;16.00;14.03;;;;;;;9.48;100.00;97969.53;5076586;28;20221;-66
2022/05/03 05:05:16;;;;;;;15.43;13.83;;;;;;;9.62;100.00;97979.16;5076618;28;20208;-66
2022/05/03 05:07:43;;;;;;;15.43;13.83;;;;;;;9.74;100.00;97963.31;5076366;28;20671;-66
2022/05/03 05:10:26;;;;;;;14.90;13.37;;;;;;;9.86;100.00;97977.50;5074687;28;20226;-66
2022/05/03 05:12:53;;;;;;;15.03;13.40;;;;;;;9.96;100.00;97978.53;5066263;28;20215;-66
2022/05/03 05:15:23;;;;;;;15.47;13.87;;;;;;;10.12;100.00;97971.28;5076478;28;20214;-65
2022/05/03 05:17:49;;;;;;;15.60;13.83;;;;;;;10.21;100.00;97979.41;5076194;28;20239;-65
2022/05/03 05:20:17;;;;;;;14.70;13.27;;;;;;;10.29;100.00;97984.16;5075894;28;20209;-66
2022/05/03 05:22:44;;;;;;;13.80;12.40;;;;;;;10.35;100.00;97978.44;5076335;28;20222;-65
2022/05/03 05:25:10;;;;;;;13.27;11.97;;;;;;;10.44;100.00;97980.41;5074695;28;20231;-67
2022/05/03 05:27:37;;;;;;;13.50;12.07;;;;;;;10.50;100.00;97980.84;5074731;28;20212;-65
2022/05/03 05:30:04;;;;;;;12.73;11.53;;;;;;;10.57;100.00;97979.44;5074716;28;20219;-65
2022/05/03 05:32:32;;;;;;;11.73;10.53;;;;;;;10.70;100.00;97979.41;5074589;28;20211;-66
2022/05/03 05:34:59;;;;;;;11.67;10.47;;;;;;;10.89;100.00;97987.69;5072663;28;20700;-66
2022/05/03 05:37:25;;;;;;;11.50;10.37;;;;;;;11.41;100.00;97983.75;5074645;28;20236;-66
2022/05/03 05:39:52;;;;;;;9.47;8.57;;;;;;;12.09;100.00;97973.22;5074568;28;20229;-66
2022/05/03 05:42:18;;;;;;;10.13;9.17;;;;;;;12.81;100.00;97981.50;5063338;28;20235;-66
2022/05/03 05:44:45;;;;;;;9.87;8.87;;;;;;;13.55;99.68;97984.19;5074419;28;20672;-66
2022/05/03 05:47:11;;;;;;;9.37;8.47;;;;;;;14.20;95.24;97981.28;5074607;28;20222;-66
2022/05/03 05:49:39;;;;;;;9.07;8.27;;;;;;;14.83;91.31;97980.97;5074220;28;20212;-66
2022/05/03 05:54:50;;;;;;;10.00;8.97;;;;;;;16.08;81.55;97986.28;5074274;28;20289;-66
2022/05/03 05:57:16;;;;;;;9.23;8.37;;;;;;;16.58;79.86;97989.38;5074197;28;20217;-66
2022/05/03 05:59:43;;;;;;;10.87;9.77;;;;;;;16.93;75.79;97984.16;5073976;28;20222;-66
2022/05/03 06:02:10;;;;;;;10.50;9.17;;;;;;;17.21;74.65;97980.47;5072157;28;20581;-66
2022/05/03 06:04:36;;;;;;;11.03;9.50;;;;;;;17.57;72.00;97984.91;5074246;28;20246;-66
2022/05/03 06:07:04;;;;;;;10.97;9.80;;;;;;;17.75;69.51;97983.03;5074237;28;20226;-65
2022/05/03 06:09:31;;;;;;;11.67;9.73;;;;;;;17.82;69.26;97988.59;5071585;28;20236;-67
2022/05/03 06:11:57;;;;;;;10.53;9.40;;;;;;;18.08;69.83;97989.47;5074279;28;20219;-66
2022/05/03 06:14:24;;;;;;;9.63;8.73;;;;;;;18.51;68.68;97989.47;5074154;28;20222;-65
2022/05/03 06:16:51;;;;;;;10.83;9.67;;;;;;;18.89;67.18;97987.16;5073732;28;20749;-65
2022/05/03 06:19:18;;;;;;;11.80;10.50;;;;;;;19.12;63.84;97993.63;5073611;28;20244;-67
2022/05/03 06:21:44;;;;;;;12.13;11.03;;;;;;;19.05;64.37;97987.22;5074003;28;20214;-65
2022/05/03 06:24:12;;;;;;;11.10;10.00;;;;;;;19.05;64.69;97981.03;5073680;28;20222;-65
2022/05/03 06:26:39;;;;;;;9.43;8.53;;;;;;;19.27;64.54;97991.19;5073762;28;20227;-66
2022/05/03 06:29:08;;;;;;;10.63;9.50;;;;;;;19.46;63.52;97986.38;5071887;28;20238;-65
2022/05/03 06:31:35;;;;;;;10.10;9.20;;;;;;;19.37;63.17;97992.72;5073543;28;20272;-65
2022/05/03 06:34:02;;;;;;;10.17;9.20;;;;;;;19.04;64.29;97990.91;5073226;28;20222;-65
2022/05/03 06:36:29;;;;;;;9.83;8.87;;;;;;;18.37;67.50;97996.25;5071706;28;20215;-67
2022/05/03 06:38:56;;;;;;;9.33;8.53;;;;;;;17.34;72.05;97994.31;5072008;28;20242;-66
2022/05/03 06:41:23;;;;;;;10.97;9.80;;;;;;;16.47;77.20;97994.88;5073392;28;20588;-66
2022/05/03 06:43:50;;;;;;;11.27;10.17;;;;;;;15.98;81.11;98000.44;5073045;28;20265;-66
2022/05/03 06:46:17;;;;;;;10.63;9.63;;;;;;;15.64;84.09;97997.53;5073346;28;20212;-66
2022/05/03 06:48:44;;;;;;;11.07;10.07;;;;;;;15.43;86.36;98003.00;5073386;28;20226;-65
2022/05/03 06:51:10;;;;;;;11.47;10.27;;;;;;;15.32;88.15;97997.81;5073151;28;20210;-66
2022/05/03 06:53:37;;;;;;;12.00;10.80;;;;;;;15.27;88.69;97996.50;5072870;28;20749;-66
2022/05/03 06:56:04;;;;;;;12.90;11.70;;;;;;;15.19;87.92;97999.84;5068455;28;20218;-66
2022/05/03 06:58:32;;;;;;;12.83;11.63;;;;;;;15.16;88.61;97999.28;5072151;28;20473;-66
2022/05/03 07:00:58;;;;;;;12.57;11.37;;;;;;;15.13;88.23;97999.53;5072148;28;20624;-65
2022/05/03 07:03:25;;;;;;;12.33;11.10;;;;;;;15.10;87.10;97997.19;5071336;28;20582;-66
2022/05/03 07:05:52;;;;;;;12.80;11.60;;;;;;;15.08;86.48;97993.78;5065841;28;20580;-66
2022/05/03 07:08:19;;;;;;;12.57;11.30;;;;;;;15.04;86.08;97998.53;5058379;28;20218;-66
2022/05/03 07:10:45;;;;;;;11.33;10.23;;;;;;;15.03;86.03;98001.38;5071399;28;20226;-66
2022/05/03 07:13:13;;;;;;;11.73;10.63;;;;;;;15.09;87.86;98000.81;5071131;28;20245;-65
2022/05/03 07:15:42;;;;;;;11.93;10.30;;;;;;;15.20;88.57;98009.53;5071623;28;20218;-66
2022/05/03 07:23:36;;;;;;;10.63;9.63;;;;;;;15.44;89.14;98006.50;5071806;28;20476;-67
2022/05/03 07:26:03;;;;;;;11.50;10.33;;;;;;;15.57;87.73;98015.06;5071820;28;20265;-66
2022/05/03 07:28:29;;;;;;;10.27;9.17;;;;;;;15.67;88.89;98014.09;5071949;28;20754;-65
2022/05/03 07:30:57;;;;;;;10.60;9.60;;;;;;;15.82;88.83;98011.84;5065017;28;20222;-66
2022/05/03 07:33:24;;;;;;;9.87;8.97;;;;;;;15.96;87.75;98019.41;5072106;28;20211;-65
2022/05/03 07:35:50;;;;;;;10.93;9.83;;;;;;;16.09;87.32;98020.78;5070954;28;20672;-65
2022/05/03 07:38:17;;;;;;;11.13;9.80;;;;;;;16.16;85.29;98020.06;5066164;28;20246;-65
2022/05/03 07:40:43;;;;;;;10.10;9.10;;;;;;;16.29;84.45;98025.97;5068080;28;20227;-67
2022/05/03 07:43:09;;;;;;;9.97;8.90;;;;;;;16.47;84.84;98024.22;5068403;28;20246;-65
2022/05/03 07:45:36;;;;;;;10.53;9.43;;;;;;;16.67;84.50;98028.53;5067670;28;20215;-66
2022/05/03 07:48:05;;;;;;;10.20;9.17;;;;;;;16.79;82.84;98027.38;5065179;28;20219;-65
2022/05/03 07:50:31;;;;;;;9.70;8.80;;;;;;;16.83;79.30;98030.56;5068679;28;20264;-66
2022/05/03 07:52:58;;;;;;;9.83;8.83;;;;;;;16.89;81.24;98020.13;5068199;28;20677;-64
2022/05/03 07:55:24;;;;;;;10.50;9.30;;;;;;;16.91;77.15;98028.84;5068246;28;20591;-64
2022/05/03 07:57:51;;;;;;;10.07;9.17;;;;;;;16.80;78.30;98030.84;5066233;28;20235;-63
2022/05/03 08:00:18;;;;;;;9.80;8.57;;;;;;;16.84;78.77;98026.91;5068524;28;20227;-64
2022/05/03 08:02:44;;;;;;;9.43;8.50;;;;;;;16.92;78.15;98019.00;5068569;28;20242;-64
2022/05/03 08:05:12;;;;;;;9.77;8.77;;;;;;;17.00;77.81;98035.97;5068443;28;20219;-64
2022/05/03 08:07:39;;;;;;;10.17;8.67;;;;;;;17.10;78.42;98031.44;5068648;28;20218;-64
2022/05/03 08:10:06;;;;;;;8.80;8.00;;;;;;;17.27;79.05;98030.63;5068544;28;20239;-64
2022/05/03 08:12:33;;;;;;;9.47;8.03;;;;;;;17.43;79.83;98033.50;5068244;28;20317;-64
2022/05/03 08:14:59;;;;;;;8.77;7.97;;;;;;;17.52;75.43;98029.94;5066664;28;20215;-65
2022/05/03 08:17:27;;;;;;;7.30;6.60;;;;;;;17.65;75.86;98025.06;5065430;28;20214;-65
2022/05/03 08:19:53;;;;;;;7.77;7.07;;;;;;;17.78;73.29;98024.66;5067680;28;20797;-64
2022/05/03 08:22:21;;;;;;;7.80;7.10;;;;;;;17.78;69.29;98024.66;5071147;28;20268;-64
2022/05/03 08:24:48;;;;;;;8.00;7.20;;;;;;;17.77;69.16;98029.19;5068174;28;20227;-65
2022/05/03 08:27:15;;;;;;;7.20;6.57;;;;;;;17.79;71.77;98021.00;5068729;28;20685;-65
2022/05/03 08:29:41;;;;;;;7.83;7.10;;;;;;;17.67;68.71;98028.41;5068041;28;20685;-64
2022/05/03 08:32:08;;;;;;;7.90;6.93;;;;;;;17.80;68.38;98025.38;5068223;28;20553;-65
2022/05/03 08:34:34;;;;;;;7.10;6.40;;;;;;;17.87;65.86;98029.91;5067677;28;20672;-65
2022/05/03 08:42:42;;;;;;;6.93;6.03;;;;;;;18.06;65.69;98037.81;5060399;28;20327;-65
2022/05/03 08:45:12;;;;;;;7.00;6.40;;;;;;;18.19;68.58;98029.38;5066889;28;20208;-64
2022/05/03 08:47:38;;;;;;;6.93;6.23;;;;;;;18.20;66.97;98036.38;5064226;28;20211;-64
2022/05/03 08:50:07;;;;;;;6.57;5.97;;;;;;;18.26;65.93;98035.75;5071459;28;20211;-65
2022/05/03 08:52:43;;;;;;;7.03;6.33;;;;;;;18.23;64.00;98044.94;5071297;28;20223;-64
2022/05/03 08:55:12;;;;;;;6.60;6.00;;;;;;;18.24;63.38;98037.75;5071123;28;20218;-65
2022/05/03 08:57:39;;;;;;;6.47;5.87;;;;;;;18.41;63.57;98035.06;5071768;28;20242;-64
2022/05/03 09:00:07;;;;;;;5.43;4.93;;;;;;;18.58;63.89;98031.50;5071052;28;20239;-64
2022/05/03 09:02:34;;;;;;;5.97;5.43;;;;;;;18.69;63.67;98036.59;5071455;28;20435;-65
2022/05/03 09:05:00;;;;;;;6.13;5.53;;;;;;;18.83;63.14;98036.00;5068775;28;20285;-65
2022/05/03 09:07:27;;;;;;;5.80;5.30;;;;;;;18.99;63.58;98029.88;5069764;28;20213;-65
2022/05/03 09:09:55;;;;;;;5.90;5.30;;;;;;;19.17;63.96;98026.13;5071077;28;20211;-66
2022/05/03 09:12:25;;;;;;;5.97;5.47;;;;;;;19.37;60.78;98030.25;5071297;28;20265;-65
2022/05/03 09:14:51;;;;;;;5.73;5.23;;;;;;;19.60;61.09;98031.31;5068582;28;20689;-66
2022/05/03 09:17:37;;;;;;;6.50;5.90;;;;;;;19.85;59.68;98035.72;5071065;28;20251;-66
2022/05/03 09:23:46;;;;;;;5.90;4.93;;;;;;;20.03;57.88;98033.72;5065677;28;20321;-65
2022/05/03 09:25:47;;;;;;;6.10;5.60;;;;;;;20.65;56.61;98033.03;5070711;28;20777;-65
2022/05/03 09:28:16;;;;;;;6.00;5.43;;;;;;;20.77;54.53;98028.13;5070768;28;20687;-65
2022/05/03 09:30:47;;;;;;;6.23;5.40;;;;;;;20.98;55.74;98034.63;5070776;28;20698;-65
2022/05/03 09:33:18;;;;;;;5.13;4.63;;;;;;;21.25;53.76;98023.47;5068481;28;20215;-65
2022/05/03 09:35:45;;;;;;;5.20;4.70;;;;;;;21.48;51.37;98024.34;5064464;28;20222;-65
2022/05/03 09:38:12;;;;;;;5.03;4.50;;;;;;;21.59;50.76;98023.94;5073848;28;20593;-66
2022/05/03 09:40:41;;;;;;;4.53;4.13;;;;;;;21.78;51.53;98026.22;5074060;28;20625;-65
2022/05/03 09:43:08;;;;;;;6.00;5.43;;;;;;;21.83;48.39;98023.81;5074511;28;20601;-65
2022/05/03 09:45:37;;;;;;;6.80;6.20;;;;;;;21.56;49.50;98021.63;5074250;28;20282;-65
2022/05/03 09:48:05;;;;;;;6.70;6.10;;;;;;;21.29;48.20;98030.16;5074462;28;20225;-65
2022/05/03 09:50:43;;;;;;;4.73;4.33;;;;;;;20.88;48.64;98030.47;5074325;28;20214;-65
2022/05/03 09:53:12;;;;;;;4.30;3.80;;;;;;;20.61;47.92;98029.00;5074176;28;20218;-65
2022/05/03 09:55:40;;;;;;;4.83;4.40;;;;;;;20.42;49.63;98021.31;5074422;28;20218;-65
2022/05/03 09:58:10;;;;;;;6.43;5.23;;;;;;;20.26;50.37;98024.03;5071745;28;20260;-65
2022/05/03 10:00:40;;;;;;;5.13;4.70;;;;;;;20.06;50.68;98022.66;5072404;28;20253;-65
2022/05/03 10:03:09;;;;;;;4.97;4.57;;;;;;;19.83;52.24;98021.63;5074247;28;20214;-65
2022/05/03 10:05:37;;;;;;;5.67;4.93;;;;;;;19.75;52.79;98016.25;5074176;28;20304;-65
2022/05/03 10:08:04;;;;;;;4.97;4.43;;;;;;;19.75;53.43;98018.91;5073878;28;20215;-65
2022/05/03 10:10:31;;;;;;;5.63;5.13;;;;;;;19.91;52.16;98020.78;5074073;28;20219;-65
2022/05/03 10:12:58;;;;;;;7.47;5.33;;;;;;;19.83;53.73;98016.28;5074114;28;20257;-65
2022/05/03 10:21:04;;;;;;;4.70;4.30;;;;;;;19.98;55.18;97993.13;5068406;28;20218;-65
2022/05/03 10:23:32;;;;;;;4.97;4.57;;;;;;;20.25;58.17;98000.84;5073703;28;20261;-65
2022/05/03 10:26:01;;;;;;;7.10;4.93;;;;;;;20.42;56.14;97997.13;5065200;28;20565;-65
2022/05/03 10:29:07;;;;;;;11.80;6.50;;;;;;;20.57;55.61;97994.59;5073003;28;20211;-67
2022/05/03 10:31:52;;;;;;;7.50;5.30;;;;;;;20.63;52.16;97993.91;5070874;28;20215;-68
2022/05/03 10:34:53;;;;;;;5.17;4.77;;;;;;;20.57;53.68;97983.88;5072736;28;20669;-67
2022/05/03 10:37:52;;;;;;;5.10;4.70;;;;;;;20.61;53.48;97979.84;5070728;28;20445;-66
2022/05/03 10:40:30;;;;;;;5.10;4.50;;;;;;;20.74;53.96;97972.91;5054628;28;20589;-67
2022/05/03 10:43:05;;;;;;;6.30;5.70;;;;;;;20.84;51.33;97975.41;5072863;28;20239;-67
2022/05/03 10:45:31;;;;;;;6.20;5.60;;;;;;;20.58;51.38;97978.31;5071950;28;20310;-67
2022/05/03 10:47:59;;;;;;;6.50;5.90;;;;;;;20.48;52.21;97977.66;5071825;28;20207;-66
2022/05/03 10:50:31;;;;;;;6.17;5.67;;;;;;;20.36;53.82;97973.66;5072783;28;20222;-66
2022/05/03 10:53:19;;;;;;;6.77;6.20;;;;;;;20.64;53.21;97977.63;5070386;28;20214;-67
2022/05/03 10:56:16;;;;;;;6.50;5.90;;;;;;;20.65;54.00;97973.09;5072812;28;20215;-66
2022/05/03 10:58:44;;;;;;;6.03;5.33;;;;;;;20.67;52.89;97969.22;5067048;28;20687;-67
2022/05/03 11:01:11;;;;;;;6.73;6.00;;;;;;;20.70;50.29;97962.66;5072937;28;20215;-67
2022/05/03 11:03:39;;;;;;;5.37;4.97;;;;;;;21.00;51.02;97965.44;5073068;28;20246;-66
2022/05/03 11:06:47;;;;;;;5.43;4.93;;;;;;;21.21;52.07;97956.78;5072986;28;20214;-67
2022/05/03 11:09:25;;;;;;;6.90;6.20;;;;;;;21.31;51.96;97952.84;5063824;28;20223;-67
2022/05/03 11:11:57;;;;;;;5.30;4.77;;;;;;;21.24;52.06;97951.03;5061499;28;20217;-67
2022/05/03 11:14:49;;;;;;;6.37;5.83;;;;;;;21.38;49.22;97953.81;5066947;28;20685;-67
2022/05/03 11:17:17;;;;;;;5.73;5.10;;;;;;;21.38;50.10;97947.59;5064985;28;20222;-67
2022/05/03 11:20:00;;;;;;;6.37;5.77;;;;;;;21.63;49.59;97943.75;5053650;28;20347;-67
2022/05/03 11:22:33;;;;;;;6.17;5.57;;;;;;;21.96;50.45;97943.34;5056048;28;20222;-67
2022/05/03 11:25:07;;;;;;;5.30;4.90;;;;;;;22.25;49.61;97938.00;5065919;28;20228;-67
2022/05/03 11:27:34;;;;;;;5.97;5.37;;;;;;;22.59;48.10;97932.97;5063205;28;20247;-67
2022/05/03 11:30:04;;;;;;;6.07;5.50;;;;;;;22.78;47.52;97934.25;5064815;28;20227;-68
2022/05/03 11:32:33;;;;;;;5.80;5.30;;;;;;;22.54;46.08;97930.00;5063100;28;20224;-67
2022/05/03 11:35:05;;;;;;;5.23;4.73;;;;;;;22.09;47.81;97932.78;5064856;28;20254;-66
2022/05/03 11:37:32;;;;;;;5.87;5.27;;;;;;;21.71;49.04;97925.69;5064481;28;20246;-66
2022/05/03 11:40:10;;;;;;;5.37;4.90;;;;;;;21.43;50.18;97924.56;5061403;28;20304;-67
2022/05/03 11:42:41;;;;;;;5.73;5.23;;;;;;;21.27;49.96;97924.66;5062885;28;20249;-67
2022/05/03 11:45:09;;;;;;;5.90;5.30;;;;;;;21.24;49.83;97919.63;5062174;28;20219;-67
2022/05/03 11:47:38;;;;;;;5.37;4.87;;;;;;;21.27;49.60;97919.25;5057464;28;20218;-67
2022/05/03 11:50:06;;;;;;;5.27;4.77;;;;;;;21.50;50.57;97914.75;5065261;28;20710;-67
2022/05/03 11:58:02;;;;;;;5.60;5.10;;;;;;;21.61;48.87;97911.66;5064813;28;20222;-67
2022/05/03 12:00:28;;;;;;;5.27;4.77;;;;;;;21.83;47.88;97900.03;5061984;28;20512;-67
2022/05/03 12:03:00;;;;;;;5.80;5.27;;;;;;;21.82;47.09;97906.44;5058159;28;20230;-68
2022/05/03 12:05:27;;;;;;;5.30;4.67;;;;;;;22.04;48.98;97907.44;5064178;28;20211;-67
2022/05/03 12:07:55;;;;;;;4.90;4.40;;;;;;;22.31;48.75;97899.56;5062341;28;20329;-66
2022/05/03 12:10:26;;;;;;;5.20;4.70;;;;;;;22.52;46.92;97906.94;5063891;28;20218;-66
2022/05/03 12:13:10;;;;;;;4.90;4.40;;;;;;;22.53;46.83;97898.69;5070532;28;20218;-67
2022/05/03 12:15:39;;;;;;;4.60;4.17;;;;;;;22.74;45.74;97906.03;5071627;28;20254;-67